sensor_id;sensor_type;location;lat;lon;timestamp;pressure;altitude;pressure_sealevel;temperature;humidity
42519;BME280;28147;47.520;18.920;2023-02-11T05:44:47;100161.63;;;-0.18;56.52
42519;BME280;28147;47.520;18.920;2023-02-11T06:03:57;100162.94;;;-0.46;57.19
42519;BME280;28147;47.520;18.920;2023-02-11T06:07:58;100155.91;;;-0.35;57.57
42519;BME280;28147;47.520;18.920;2023-02-11T07:06:43;100143.03;;;1.23;55.22
42519;BME280;28147;47.520;18.920;2023-02-11T07:13:20;100145.50;;;1.25;53.28
42519;BME280;28147;47.520;18.920;2023-02-11T07:15:45;100138.19;;;1.59;53.03
42519;BME280;28147;47.520;18.920;2023-02-11T07:18:11;100136.44;;;1.59;54.21
42519;BME280;28147;47.520;18.920;2023-02-11T07:20:36;100144.53;;;1.87;52.35
42519;BME280;28147;47.520;18.920;2023-02-11T07:23:03;100132.78;;;1.91;53.13
42519;BME280;28147;47.520;18.920;2023-02-11T07:27:12;100137.22;;;2.00;52.66
42519;BME280;28147;47.520;18.920;2023-02-11T07:30:52;100139.13;;;1.79;52.91
42519;BME280;28147;47.520;18.920;2023-02-11T07:44:58;100114.22;;;1.73;53.53
42519;BME280;28147;47.520;18.920;2023-02-11T07:47:24;100129.56;;;1.78;53.14
42519;BME280;28147;47.520;18.920;2023-02-11T07:55:17;100109.94;;;1.82;55.48
42519;BME280;28147;47.520;18.920;2023-02-11T08:01:33;100110.00;;;2.59;53.29
42519;BME280;28147;47.520;18.920;2023-02-11T08:04:00;100110.53;;;2.73;52.35
42519;BME280;28147;47.520;18.920;2023-02-11T08:06:28;100111.22;;;2.84;51.56
42519;BME280;28147;47.520;18.920;2023-02-11T08:08:54;100116.06;;;2.79;51.44
42519;BME280;28147;47.520;18.920;2023-02-11T08:11:22;100110.53;;;2.73;50.88
42519;BME280;28147;47.520;18.920;2023-02-11T08:13:49;100098.63;;;2.88;50.93
42519;BME280;28147;47.520;18.920;2023-02-11T08:18:06;100115.00;;;3.19;49.84
42519;BME280;28147;47.520;18.920;2023-02-11T08:20:32;100115.13;;;3.27;49.50
42519;BME280;28147;47.520;18.920;2023-02-11T08:22:58;100120.50;;;3.26;49.00
42519;BME280;28147;47.520;18.920;2023-02-11T08:25:23;100114.22;;;2.99;49.22
42519;BME280;28147;47.520;18.920;2023-02-11T08:29:35;100111.50;;;3.28;49.47
42519;BME280;28147;47.520;18.920;2023-02-11T08:38:35;100112.78;;;3.24;49.15
42519;BME280;28147;47.520;18.920;2023-02-11T08:41:01;100117.28;;;3.41;48.79
42519;BME280;28147;47.520;18.920;2023-02-11T08:43:26;100116.06;;;3.63;48.22
42519;BME280;28147;47.520;18.920;2023-02-11T08:45:52;100116.75;;;3.38;48.89
42519;BME280;28147;47.520;18.920;2023-02-11T08:49:32;100116.66;;;3.30;49.39
42519;BME280;28147;47.520;18.920;2023-02-11T08:56:50;100110.94;;;3.34;49.46
42519;BME280;28147;47.520;18.920;2023-02-11T09:10:04;100096.56;;;4.20;47.09
42519;BME280;28147;47.520;18.920;2023-02-11T09:16:07;100085.63;;;5.63;45.15
42519;BME280;28147;47.520;18.920;2023-02-11T09:18:39;100090.59;;;6.24;43.61
42519;BME280;28147;47.520;18.920;2023-02-11T09:21:07;100087.25;;;6.06;44.39
42519;BME280;28147;47.520;18.920;2023-02-11T09:23:35;100091.91;;;6.04;43.15
42519;BME280;28147;47.520;18.920;2023-02-11T09:26:08;100088.06;;;5.98;43.15
42519;BME280;28147;47.520;18.920;2023-02-11T09:28:34;100079.25;;;5.73;44.28
42519;BME280;28147;47.520;18.920;2023-02-11T09:31:08;100084.66;;;6.22;43.76
42519;BME280;28147;47.520;18.920;2023-02-11T09:33:33;100092.28;;;6.25;42.79
42519;BME280;28147;47.520;18.920;2023-02-11T09:36:03;100095.19;;;6.06;42.70
42519;BME280;28147;47.520;18.920;2023-02-11T09:38:28;100087.94;;;6.24;43.03
42519;BME280;28147;47.520;18.920;2023-02-11T09:40:54;100084.16;;;6.43;43.14
42519;BME280;28147;47.520;18.920;2023-02-11T09:43:23;100081.19;;;6.54;43.16
42519;BME280;28147;47.520;18.920;2023-02-11T09:45:53;100081.13;;;7.03;42.44
42519;BME280;28147;47.520;18.920;2023-02-11T09:48:20;100077.06;;;6.44;42.35
42519;BME280;28147;47.520;18.920;2023-02-11T09:50:53;100074.03;;;6.96;42.19
42519;BME280;28147;47.520;18.920;2023-02-11T09:53:26;100075.00;;;7.03;42.23
42519;BME280;28147;47.520;18.920;2023-02-11T09:55:58;100064.97;;;6.74;43.25
42519;BME280;28147;47.520;18.920;2023-02-11T10:24:40;100041.78;;;6.84;42.98
42519;BME280;28147;47.520;18.920;2023-02-11T10:27:21;100046.09;;;6.85;43.45
42519;BME280;28147;47.520;18.920;2023-02-11T10:29:52;100036.72;;;6.01;43.42
42519;BME280;28147;47.520;18.920;2023-02-11T10:32:39;100033.84;;;5.27;45.72
42519;BME280;28147;47.520;18.920;2023-02-11T10:35:19;100035.50;;;5.28;46.43
42519;BME280;28147;47.520;18.920;2023-02-11T10:37:46;100015.91;;;4.97;46.89
42519;BME280;28147;47.520;18.920;2023-02-11T10:40:17;100016.56;;;4.99;47.58
42519;BME280;28147;47.520;18.920;2023-02-11T10:42:48;100015.63;;;5.58;46.89
42519;BME280;28147;47.520;18.920;2023-02-11T10:53:35;100004.66;;;6.28;45.77
42519;BME280;28147;47.520;18.920;2023-02-11T10:56:02;99996.84;;;6.51;44.85
42519;BME280;28147;47.520;18.920;2023-02-11T10:58:40;100008.47;;;6.34;45.46
42519;BME280;28147;47.520;18.920;2023-02-11T11:01:07;100000.69;;;6.32;45.23
42519;BME280;28147;47.520;18.920;2023-02-11T11:03:37;99998.13;;;5.57;46.52
42519;BME280;28147;47.520;18.920;2023-02-11T11:06:13;99988.63;;;6.14;46.40
42519;BME280;28147;47.520;18.920;2023-02-11T11:11:20;99986.41;;;6.74;44.42
42519;BME280;28147;47.520;18.920;2023-02-11T11:19:19;99957.41;;;8.20;42.42
42519;BME280;28147;47.520;18.920;2023-02-11T11:21:53;99955.03;;;8.78;41.43
42519;BME280;28147;47.520;18.920;2023-02-11T11:26:48;99954.72;;;8.05;41.06
42519;BME280;28147;47.520;18.920;2023-02-11T11:30:01;99963.19;;;6.93;41.05
42519;BME280;28147;47.520;18.920;2023-02-11T11:32:05;99953.56;;;7.39;41.01
42519;BME280;28147;47.520;18.920;2023-02-11T11:34:42;99954.75;;;7.28;41.31
42519;BME280;28147;47.520;18.920;2023-02-11T11:39:50;99929.06;;;6.58;40.57
42519;BME280;28147;47.520;18.920;2023-02-11T11:42:31;99937.66;;;6.61;40.90
42519;BME280;28147;47.520;18.920;2023-02-11T11:45:01;99937.59;;;6.77;40.58
42519;BME280;28147;47.520;18.920;2023-02-11T11:47:28;99935.06;;;6.92;40.37
42519;BME280;28147;47.520;18.920;2023-02-11T11:50:22;99937.38;;;7.26;40.37
42519;BME280;28147;47.520;18.920;2023-02-11T11:55:44;99912.78;;;6.86;40.21
42519;BME280;28147;47.520;18.920;2023-02-11T11:58:16;99924.38;;;7.16;40.21
42519;BME280;28147;47.520;18.920;2023-02-11T12:12:07;99892.50;;;7.01;40.40
42519;BME280;28147;47.520;18.920;2023-02-11T12:14:42;99881.81;;;6.87;40.16
42519;BME280;28147;47.520;18.920;2023-02-11T12:23:02;99859.78;;;6.94;39.77
42519;BME280;28147;47.520;18.920;2023-02-11T12:25:45;99850.19;;;6.93;38.72
42519;BME280;28147;47.520;18.920;2023-02-11T12:36:33;99843.66;;;7.04;39.02
42519;BME280;28147;47.520;18.920;2023-02-11T12:47:19;99829.31;;;7.21;38.10
42519;BME280;28147;47.520;18.920;2023-02-11T12:55:06;99797.34;;;6.77;37.95
42519;BME280;28147;47.520;18.920;2023-02-11T12:57:36;99808.44;;;6.72;38.53
42519;BME280;28147;47.520;18.920;2023-02-11T13:08:13;99802.34;;;6.72;38.68
42519;BME280;28147;47.520;18.920;2023-02-11T13:10:42;99792.78;;;6.94;38.44
42519;BME280;28147;47.520;18.920;2023-02-11T13:13:18;99778.19;;;6.75;38.29
42519;BME280;28147;47.520;18.920;2023-02-11T13:18:54;99795.69;;;6.76;38.81
42519;BME280;28147;47.520;18.920;2023-02-11T13:34:26;99783.31;;;6.99;38.60
42519;BME280;28147;47.520;18.920;2023-02-11T13:42:50;99779.22;;;6.89;39.15
42519;BME280;28147;47.520;18.920;2023-02-11T13:45:21;99780.94;;;7.04;39.09
42519;BME280;28147;47.520;18.920;2023-02-11T13:47:57;99783.25;;;7.07;39.31
42519;BME280;28147;47.520;18.920;2023-02-11T13:50:24;99788.25;;;7.02;39.18
42519;BME280;28147;47.520;18.920;2023-02-11T13:53:02;99787.56;;;7.09;39.43
42519;BME280;28147;47.520;18.920;2023-02-11T13:55:29;99787.19;;;7.12;39.09
42519;BME280;28147;47.520;18.920;2023-02-11T14:05:37;99773.66;;;7.29;38.78
42519;BME280;28147;47.520;18.920;2023-02-11T14:08:28;99769.31;;;7.14;38.89
42519;BME280;28147;47.520;18.920;2023-02-11T14:21:22;99773.47;;;7.08;39.13
42519;BME280;28147;47.520;18.920;2023-02-11T14:23:50;99784.13;;;7.00;39.61
42519;BME280;28147;47.520;18.920;2023-02-11T14:32:08;99798.56;;;6.97;39.80
42519;BME280;28147;47.520;18.920;2023-02-11T14:42:43;99786.00;;;7.14;39.56
42519;BME280;28147;47.520;18.920;2023-02-11T14:45:22;99778.06;;;6.91;40.02
42519;BME280;28147;47.520;18.920;2023-02-11T14:48:02;99786.97;;;6.98;40.26
42519;BME280;28147;47.520;18.920;2023-02-11T14:53:21;99771.63;;;6.86;40.70
42519;BME280;28147;47.520;18.920;2023-02-11T14:55:52;99771.63;;;6.63;40.92
42519;BME280;28147;47.520;18.920;2023-02-11T14:58:19;99772.69;;;6.76;41.01
42519;BME280;28147;47.520;18.920;2023-02-11T15:03:35;99764.50;;;6.94;40.43
42519;BME280;28147;47.520;18.920;2023-02-11T15:08:42;99762.31;;;6.75;40.34
42519;BME280;28147;47.520;18.920;2023-02-11T15:11:11;99755.00;;;6.77;40.30
42519;BME280;28147;47.520;18.920;2023-02-11T15:13:37;99751.19;;;6.79;40.82
42519;BME280;28147;47.520;18.920;2023-02-11T15:16:05;99754.53;;;6.96;40.67
42519;BME280;28147;47.520;18.920;2023-02-11T15:18:40;99747.78;;;6.94;40.81
42519;BME280;28147;47.520;18.920;2023-02-11T15:21:09;99743.19;;;6.88;40.95
42519;BME280;28147;47.520;18.920;2023-02-11T15:23:35;99737.75;;;6.81;41.44
42519;BME280;28147;47.520;18.920;2023-02-11T15:26:01;99731.91;;;6.94;41.22
42519;BME280;28147;47.520;18.920;2023-02-11T15:28:33;99741.47;;;6.95;41.13
42519;BME280;28147;47.520;18.920;2023-02-11T15:31:13;99748.47;;;6.88;40.92
42519;BME280;28147;47.520;18.920;2023-02-11T15:33:39;99734.59;;;6.86;41.17
42519;BME280;28147;47.520;18.920;2023-02-11T15:40:29;99726.81;;;6.61;41.36
42519;BME280;28147;47.520;18.920;2023-02-11T15:46:21;99725.19;;;6.60;42.01
42519;BME280;28147;47.520;18.920;2023-02-11T15:48:51;99712.59;;;6.62;42.70
42519;BME280;28147;47.520;18.920;2023-02-11T16:02:55;99715.25;;;6.31;43.13
42519;BME280;28147;47.520;18.920;2023-02-11T16:09:57;99711.00;;;6.22;43.61
42519;BME280;28147;47.520;18.920;2023-02-11T16:12:24;99710.00;;;6.23;43.11
42519;BME280;28147;47.520;18.920;2023-02-11T16:14:51;99704.09;;;6.13;44.09
42519;BME280;28147;47.520;18.920;2023-02-11T16:19:55;99702.59;;;6.18;43.60
42519;BME280;28147;47.520;18.920;2023-02-11T16:24:54;99685.50;;;5.90;44.20
42519;BME280;28147;47.520;18.920;2023-02-11T16:27:27;99680.72;;;5.93;44.17
42519;BME280;28147;47.520;18.920;2023-02-11T16:29:55;99683.00;;;6.04;43.83
42519;BME280;28147;47.520;18.920;2023-02-11T16:39:54;99689.66;;;5.84;43.69
42519;BME280;28147;47.520;18.920;2023-02-11T16:42:19;99681.34;;;6.03;44.94
42519;BME280;28147;47.520;18.920;2023-02-11T16:44:45;99696.22;;;6.04;43.76
42519;BME280;28147;47.520;18.920;2023-02-11T16:49:53;99689.38;;;6.18;44.32
42519;BME280;28147;47.520;18.920;2023-02-11T16:52:20;99681.78;;;6.15;44.15
42519;BME280;28147;47.520;18.920;2023-02-11T16:54:46;99656.84;;;6.18;43.85
42519;BME280;28147;47.520;18.920;2023-02-11T16:57:14;99672.22;;;6.14;44.39
42519;BME280;28147;47.520;18.920;2023-02-11T16:59:40;99672.81;;;5.85;43.69
42519;BME280;28147;47.520;18.920;2023-02-11T17:02:11;99681.03;;;5.90;43.95
42519;BME280;28147;47.520;18.920;2023-02-11T17:04:38;99691.59;;;6.06;43.71
42519;BME280;28147;47.520;18.920;2023-02-11T17:07:04;99688.56;;;6.18;43.77
42519;BME280;28147;47.520;18.920;2023-02-11T17:09:29;99690.19;;;5.71;45.15
42519;BME280;28147;47.520;18.920;2023-02-11T17:11:54;99694.44;;;5.89;44.71
42519;BME280;28147;47.520;18.920;2023-02-11T17:14:20;99678.97;;;5.69;45.38
42519;BME280;28147;47.520;18.920;2023-02-11T17:16:46;99692.31;;;5.84;44.96
42519;BME280;28147;47.520;18.920;2023-02-11T17:19:14;99699.88;;;5.87;45.01
42519;BME280;28147;47.520;18.920;2023-02-11T17:24:17;99712.16;;;5.80;45.38
42519;BME280;28147;47.520;18.920;2023-02-11T17:26:43;99716.72;;;6.02;44.01
42519;BME280;28147;47.520;18.920;2023-02-11T17:29:11;99717.53;;;5.86;45.69
42519;BME280;28147;47.520;18.920;2023-02-11T17:31:38;99706.53;;;5.75;45.71
42519;BME280;28147;47.520;18.920;2023-02-11T17:34:03;99712.63;;;5.75;45.93
42519;BME280;28147;47.520;18.920;2023-02-11T17:36:29;99711.94;;;5.90;45.66
42519;BME280;28147;47.520;18.920;2023-02-11T17:38:58;99713.56;;;5.91;46.20
42519;BME280;28147;47.520;18.920;2023-02-11T17:41:24;99709.13;;;5.83;45.80
42519;BME280;28147;47.520;18.920;2023-02-11T17:43:49;99710.44;;;5.87;46.31
42519;BME280;28147;47.520;18.920;2023-02-11T17:46:15;99711.81;;;5.75;46.72
42519;BME280;28147;47.520;18.920;2023-02-11T17:48:41;99707.25;;;5.52;47.44
42519;BME280;28147;47.520;18.920;2023-02-11T17:55:54;99712.41;;;5.46;48.23
42519;BME280;28147;47.520;18.920;2023-02-11T17:58:21;99697.53;;;5.45;47.88
42519;BME280;28147;47.520;18.920;2023-02-11T18:00:46;99693.41;;;5.42;47.69
42519;BME280;28147;47.520;18.920;2023-02-11T18:03:12;99679.38;;;5.50;47.62
42519;BME280;28147;47.520;18.920;2023-02-11T18:06:46;99674.84;;;5.67;46.89
42519;BME280;28147;47.520;18.920;2023-02-11T18:09:11;99675.16;;;5.80;45.99
42519;BME280;28147;47.520;18.920;2023-02-11T18:13:41;99678.50;;;5.66;46.70
42519;BME280;28147;47.520;18.920;2023-02-11T18:16:07;99674.09;;;5.97;46.22
42519;BME280;28147;47.520;18.920;2023-02-11T18:19:45;99677.03;;;6.11;45.67
42519;BME280;28147;47.520;18.920;2023-02-11T18:22:11;99668.63;;;6.07;45.18
42519;BME280;28147;47.520;18.920;2023-02-11T18:24:36;99660.81;;;5.66;46.45
42519;BME280;28147;47.520;18.920;2023-02-11T18:27:04;99664.59;;;5.80;46.14
42519;BME280;28147;47.520;18.920;2023-02-11T18:29:30;99659.63;;;5.77;46.58
42519;BME280;28147;47.520;18.920;2023-02-11T18:31:55;99668.19;;;5.79;46.84
42519;BME280;28147;47.520;18.920;2023-02-11T18:34:21;99672.16;;;5.83;46.80
42519;BME280;28147;47.520;18.920;2023-02-11T18:38:02;99668.03;;;5.80;46.94
42519;BME280;28147;47.520;18.920;2023-02-11T18:45:28;99684.97;;;5.55;48.17
42519;BME280;28147;47.520;18.920;2023-02-11T18:49:26;99678.34;;;5.59;47.45
42519;BME280;28147;47.520;18.920;2023-02-11T18:59:23;99671.41;;;5.58;47.69
42519;BME280;28147;47.520;18.920;2023-02-11T19:01:57;99675.19;;;5.64;47.40
42519;BME280;28147;47.520;18.920;2023-02-11T19:04:22;99678.88;;;5.54;48.59
42519;BME280;28147;47.520;18.920;2023-02-11T19:07:10;99671.13;;;5.45;48.30
42519;BME280;28147;47.520;18.920;2023-02-11T19:09:35;99681.41;;;5.79;47.80
42519;BME280;28147;47.520;18.920;2023-02-11T19:12:02;99676.41;;;6.00;47.10
42519;BME280;28147;47.520;18.920;2023-02-11T19:14:29;99669.38;;;5.68;46.89
42519;BME280;28147;47.520;18.920;2023-02-11T19:17:07;99658.25;;;5.50;47.75
42519;BME280;28147;47.520;18.920;2023-02-11T19:19:35;99673.38;;;5.72;47.65
42519;BME280;28147;47.520;18.920;2023-02-11T19:22:02;99672.19;;;5.75;47.80
42519;BME280;28147;47.520;18.920;2023-02-11T19:24:30;99676.94;;;5.96;46.83
42519;BME280;28147;47.520;18.920;2023-02-11T19:26:57;99685.88;;;5.95;47.80
42519;BME280;28147;47.520;18.920;2023-02-11T19:29:23;99678.09;;;5.85;47.16
42519;BME280;28147;47.520;18.920;2023-02-11T19:31:49;99671.66;;;5.32;48.20
42519;BME280;28147;47.520;18.920;2023-02-11T19:36:59;99674.09;;;5.42;47.62
42519;BME280;28147;47.520;18.920;2023-02-11T19:39:26;99674.44;;;5.47;47.55
42519;BME280;28147;47.520;18.920;2023-02-11T19:41:51;99669.16;;;5.47;48.10
42519;BME280;28147;47.520;18.920;2023-02-11T19:44:17;99676.81;;;5.73;47.63
42519;BME280;28147;47.520;18.920;2023-02-11T19:46:43;99686.69;;;5.79;47.37
42519;BME280;28147;47.520;18.920;2023-02-11T19:49:13;99685.72;;;5.80;47.23
42519;BME280;28147;47.520;18.920;2023-02-11T19:51:39;99691.84;;;5.64;47.54
42519;BME280;28147;47.520;18.920;2023-02-11T19:54:05;99691.03;;;5.64;48.19
42519;BME280;28147;47.520;18.920;2023-02-11T19:56:31;99691.00;;;5.72;47.89
42519;BME280;28147;47.520;18.920;2023-02-11T19:59:05;99686.44;;;5.57;49.12
42519;BME280;28147;47.520;18.920;2023-02-11T20:01:59;99665.16;;;5.51;49.88
42519;BME280;28147;47.520;18.920;2023-02-11T20:04:25;99672.03;;;5.68;50.23
42519;BME280;28147;47.520;18.920;2023-02-11T20:06:51;99674.44;;;5.86;50.32
42519;BME280;28147;47.520;18.920;2023-02-11T20:09:16;99674.53;;;5.70;50.56
42519;BME280;28147;47.520;18.920;2023-02-11T20:11:42;99668.81;;;5.89;50.44
42519;BME280;28147;47.520;18.920;2023-02-11T20:14:10;99665.88;;;5.84;50.90
42519;BME280;28147;47.520;18.920;2023-02-11T20:16:35;99675.75;;;5.98;51.77
42519;BME280;28147;47.520;18.920;2023-02-11T20:19:01;99647.31;;;5.61;53.38
42519;BME280;28147;47.520;18.920;2023-02-11T20:21:28;99653.06;;;5.73;53.66
42519;BME280;28147;47.520;18.920;2023-02-11T20:23:54;99662.16;;;5.62;54.48
42519;BME280;28147;47.520;18.920;2023-02-11T20:28:46;99665.94;;;5.68;53.96
42519;BME280;28147;47.520;18.920;2023-02-11T20:31:12;99664.88;;;5.93;53.20
42519;BME280;28147;47.520;18.920;2023-02-11T20:33:38;99665.16;;;6.06;53.12
42519;BME280;28147;47.520;18.920;2023-02-11T20:38:32;99663.72;;;5.96;54.94
42519;BME280;28147;47.520;18.920;2023-02-11T20:41:06;99646.94;;;6.12;55.40
42519;BME280;28147;47.520;18.920;2023-02-11T20:43:33;99655.06;;;6.10;56.26
42519;BME280;28147;47.520;18.920;2023-02-11T20:46:02;99657.75;;;6.25;56.09
42519;BME280;28147;47.520;18.920;2023-02-11T20:48:29;99651.22;;;6.13;56.64
42519;BME280;28147;47.520;18.920;2023-02-11T20:50:54;99653.66;;;6.22;56.32
42519;BME280;28147;47.520;18.920;2023-02-11T20:53:20;99643.72;;;6.24;56.50
42519;BME280;28147;47.520;18.920;2023-02-11T20:55:45;99641.59;;;6.20;56.88
42519;BME280;28147;47.520;18.920;2023-02-11T21:00:48;99641.78;;;6.18;57.19
42519;BME280;28147;47.520;18.920;2023-02-11T21:03:14;99649.16;;;6.00;58.14
42519;BME280;28147;47.520;18.920;2023-02-11T21:05:39;99643.06;;;5.91;58.84
42519;BME280;28147;47.520;18.920;2023-02-11T21:11:11;99638.69;;;5.67;59.73
42519;BME280;28147;47.520;18.920;2023-02-11T21:13:38;99628.41;;;5.80;59.60
42519;BME280;28147;47.520;18.920;2023-02-11T21:16:05;99631.84;;;5.89;59.29
42519;BME280;28147;47.520;18.920;2023-02-11T21:18:31;99642.16;;;5.68;60.30
42519;BME280;28147;47.520;18.920;2023-02-11T21:20:57;99640.81;;;5.72;60.58
42519;BME280;28147;47.520;18.920;2023-02-11T21:23:23;99646.94;;;5.72;60.43
42519;BME280;28147;47.520;18.920;2023-02-11T21:25:49;99653.56;;;6.07;59.66
42519;BME280;28147;47.520;18.920;2023-02-11T21:28:16;99657.03;;;6.08;59.44
42519;BME280;28147;47.520;18.920;2023-02-11T21:30:42;99654.00;;;6.19;59.49
42519;BME280;28147;47.520;18.920;2023-02-11T21:33:07;99653.19;;;6.19;59.24
42519;BME280;28147;47.520;18.920;2023-02-11T21:35:35;99659.88;;;6.06;59.28
42519;BME280;28147;47.520;18.920;2023-02-11T21:38:01;99658.09;;;5.99;59.66
42519;BME280;28147;47.520;18.920;2023-02-11T21:43:02;99631.56;;;5.76;59.86
42519;BME280;28147;47.520;18.920;2023-02-11T21:45:30;99656.13;;;5.84;60.10
42519;BME280;28147;47.520;18.920;2023-02-11T21:47:55;99663.25;;;5.84;60.39
42519;BME280;28147;47.520;18.920;2023-02-11T21:50:21;99660.53;;;5.61;61.28
42519;BME280;28147;47.520;18.920;2023-02-11T21:52:46;99661.50;;;5.60;61.53
42519;BME280;28147;47.520;18.920;2023-02-11T21:55:12;99654.00;;;5.80;60.95
42519;BME280;28147;47.520;18.920;2023-02-11T21:57:37;99646.94;;;5.72;61.15
42519;BME280;28147;47.520;18.920;2023-02-11T22:02:41;99634.13;;;5.61;61.47
42519;BME280;28147;47.520;18.920;2023-02-11T22:05:16;99621.72;;;5.61;61.69
42519;BME280;28147;47.520;18.920;2023-02-11T22:07:41;99641.03;;;5.62;62.16
42519;BME280;28147;47.520;18.920;2023-02-11T22:10:07;99640.31;;;5.76;61.54
42519;BME280;28147;47.520;18.920;2023-02-11T22:14:12;99637.38;;;5.63;61.92
42519;BME280;28147;47.520;18.920;2023-02-11T22:16:37;99638.94;;;5.41;63.81
42519;BME280;28147;47.520;18.920;2023-02-11T22:19:03;99641.88;;;5.54;63.42
42519;BME280;28147;47.520;18.920;2023-02-11T22:21:30;99659.38;;;5.55;63.57
42519;BME280;28147;47.520;18.920;2023-02-11T22:23:55;99669.44;;;5.52;63.87
42519;BME280;28147;47.520;18.920;2023-02-11T22:27:29;99662.13;;;5.70;63.36
42519;BME280;28147;47.520;18.920;2023-02-11T22:29:54;99653.72;;;5.67;63.78
42519;BME280;28147;47.520;18.920;2023-02-11T22:32:20;99656.69;;;5.64;63.84
42519;BME280;28147;47.520;18.920;2023-02-11T22:34:45;99648.59;;;5.73;63.40
42519;BME280;28147;47.520;18.920;2023-02-11T22:37:11;99640.69;;;5.65;64.06
42519;BME280;28147;47.520;18.920;2023-02-11T22:39:36;99643.53;;;5.55;64.32
42519;BME280;28147;47.520;18.920;2023-02-11T22:42:01;99657.59;;;5.40;65.76
42519;BME280;28147;47.520;18.920;2023-02-11T22:44:27;99654.78;;;5.41;65.80
42519;BME280;28147;47.520;18.920;2023-02-11T22:47:02;99656.88;;;5.62;65.62
42519;BME280;28147;47.520;18.920;2023-02-11T22:49:27;99654.13;;;5.47;65.91
42519;BME280;28147;47.520;18.920;2023-02-11T22:53:03;99660.72;;;5.51;65.91
42519;BME280;28147;47.520;18.920;2023-02-11T22:55:28;99663.88;;;5.39;66.09
42519;BME280;28147;47.520;18.920;2023-02-11T22:57:54;99671.81;;;5.39;66.71
42519;BME280;28147;47.520;18.920;2023-02-11T23:00:20;99664.72;;;5.39;66.81
42519;BME280;28147;47.520;18.920;2023-02-11T23:02:48;99656.94;;;5.46;66.78
42519;BME280;28147;47.520;18.920;2023-02-11T23:05:29;99655.97;;;5.39;66.91
42519;BME280;28147;47.520;18.920;2023-02-11T23:07:54;99658.53;;;5.63;66.23
42519;BME280;28147;47.520;18.920;2023-02-11T23:10:20;99652.03;;;5.74;65.47
42519;BME280;28147;47.520;18.920;2023-02-11T23:12:45;99657.41;;;5.57;66.38
42519;BME280;28147;47.520;18.920;2023-02-11T23:15:11;99648.66;;;5.57;66.09
42519;BME280;28147;47.520;18.920;2023-02-11T23:17:36;99656.09;;;5.53;67.00
42519;BME280;28147;47.520;18.920;2023-02-11T23:20:02;99645.72;;;5.44;67.42
42519;BME280;28147;47.520;18.920;2023-02-11T23:22:27;99667.31;;;5.47;67.97
42519;BME280;28147;47.520;18.920;2023-02-11T23:24:53;99663.69;;;5.48;68.15
42519;BME280;28147;47.520;18.920;2023-02-11T23:27:18;99666.66;;;5.45;68.04
42519;BME280;28147;47.520;18.920;2023-02-11T23:29:44;99660.34;;;5.63;68.01
42519;BME280;28147;47.520;18.920;2023-02-11T23:33:11;99665.25;;;5.74;66.88
42519;BME280;28147;47.520;18.920;2023-02-11T23:37:53;99660.03;;;5.57;68.10
42519;BME280;28147;47.520;18.920;2023-02-11T23:42:53;99649.53;;;5.33;69.44
42519;BME280;28147;47.520;18.920;2023-02-11T23:45:19;99636.03;;;5.28;69.77
42519;BME280;28147;47.520;18.920;2023-02-11T23:47:44;99633.06;;;5.06;70.94
42519;BME280;28147;47.520;18.920;2023-02-11T23:50:10;99646.72;;;5.26;70.57
42519;BME280;28147;47.520;18.920;2023-02-11T23:52:36;99650.13;;;5.51;69.87
42519;BME280;28147;47.520;18.920;2023-02-11T23:55:01;99659.28;;;5.32;70.31
42519;BME280;28147;47.520;18.920;2023-02-11T23:57:26;99671.94;;;5.45;70.39
42519;BME280;28147;47.520;18.920;2023-02-11T23:59:52;99654.28;;;5.37;70.73
